YCM weather

Niagara District Airport
St Catharines, Ontario, Canada

Public forecast

Using degrees Celsius for public forecast. Weather courtesy of forecast.io.

METAR (pilot weather report)

Retrieved 2018/11/16 14:00 UTC (10 minutes ago):

CYSN 161400Z 24009KT 3SM -RASN BR SCT008 OVC012 02/01 A2973 RMK SF3SF5 SLP074

TAF (pilot weather forecast)

Retrieved 2018/11/16 14:51 UTC (0 seconds ago):

TAF CYSN 161350Z 1614/1702 24015KT 21/2SM -RASN BKN015 OVC030 TEMPO 1614/1617 P6SM NSW SCT020 OVC030 FM161700 25015G25KT P6SM SCT020 OVC040 TEMPO 1617/1702 P6SM -RASN BKN020 OVC040 BECMG 1622/1624 24015KT RMK NXT FCST BY 162000Z